Weather at Paris Municipal Airport

Public forecast

Using degrees Fahrenheit for public forecast. Weather courtesy of forecast.io.

Closest aviation weather report (METAR) to Paris Municipal Airport

Closest report is Russellville Regional Airport, 28.9 nm (53.6 km) E. Retrieved 2022/07/06 14:53 UTC (40 minutes ago):

KRUE 061453Z AUTO VRB05KT 10SM CLR 32/22 A2998 RMK AO2 SLP142 T03220222 50006

Closest aviation forecast (TAF) to Paris Municipal Airport

Closest forecast is Fort Smith Regional Airport, 33.7 nm (62.4 km) W. Retrieved 2022/07/06 12:22 UTC (3 hours ago):

TAF KFSM 061120Z 0612/0712 11004KT P6SM SKC FM061600 21007KT P6SM SKC FM070100 VRB03KT P6SM SKC